DNAADNSO

Guest
Details From DNAA - NNAMDI AZIKIWE INTL
To DNSO - SADIQ ABUBAKAR III INTL
Flight Number -
Tags generated
Created
Modified
Stats Distance 265 nm / 491 km
Max Altitude 32,600 ft / 9,936 m
Waypoints 4
Social Downloads 0
Likes 0
Share VATSIM

Download

Looking for another format? Having issues loading an existing format? Contact us
Advertisement - Login to hide

Notes

Basic altitude profile: - Ascent Rate: 2500ft/min - Ascent Speed: 250kts - Cruise Altitude: 35000ft - Cruise Speed: 420kts - Descent Rate: 1500ft/min - Descent Speed: 250kts Options: - Use NATs: yes - Use PACOTS: yes - Use low airways: yes - Use high airways: yes

Route

DNAA KINDO V224 SOK DNSO

ID Type Via Altitude Latitude Longitude Leg Dist Tot Dist Heading (true) Name
O DNAA APT - 0 ft / 0 m 9.00679˚ 7.26317˚ - 0 nm - NNAMDI AZIKIWE INTL
KINDO FIX - 32,600 ft / 9,936 m 10.37347˚ 6.58592˚ 91 nm 91 nm 334° / 334° -
SOK VOR V224 (AWY-LO) 5,500 ft / 1,676 m 12.92109˚ 5.22931˚ 172 nm 263 nm 333° / 332° SOKOTO VOR-DME
O DNSO APT - 0 ft / 0 m 12.91590˚ 5.20689˚ 1 nm 265 nm 257° / 257° SADIQ ABUBAKAR III INTL

Altitude Profile

Advertisement - Login to hide

Weather


0- 5 10 15 20 25 30 35+ Temperature / ° C

Clouds and Precipitation
Forecast for 2017-12-11 06:00 UTC. Updated 43 minutes ago

Ground ~20,000 ft ~40,000 ft Winds

DNAA

Details ICAO DNAA (ABV)
Name NNAMDI AZIKIWE INTL
Region Nigeria
Timezone Africa/Lagos (UTC+1.0)
Stats Elevation 1,123 ft / 342 m (AMSL)
Location 9.006790° 7.263171°
Runways 1
Magnetic Variation 0.815° W

METAR

Not found

TAF

TAF TAF DNAA 102140Z 1100/1206 05008KT 1200 HZ BECMG 1110/1112 1500

Decode

Departure Runways

ID Width Length Bearing (true) Bearing (mag) Surface Threshold Offset Overrun Length
04 197 ft / 60 m 11,883 ft / 3,622 m 34.91° 35.73° Asphalt 0 ft / 0 m 210 ft / 64 m
22 197 ft / 60 m 11,883 ft / 3,622 m 214.91° 215.73° Asphalt 0 ft / 0 m 210 ft / 64 m

DNSO

Details ICAO DNSO (SKO)
Name SADIQ ABUBAKAR III INTL
Region Nigeria
Timezone Africa/Lagos (UTC+1.0)
Stats Elevation 1,010 ft / 308 m (AMSL)
Location 12.915896° 5.206894°
Runways 1
Magnetic Variation 0.643° W

METAR

Not found

TAF

TAF DNSO 110340Z 1106/1212 07010KT CAVOK

Decode

Destination Runways

ID Width Length Bearing (true) Bearing (mag) Surface Threshold Offset Overrun Length
08 197 ft / 60 m 9,837 ft / 2,998 m 76.61° 77.25° Asphalt 0 ft / 0 m 390 ft / 119 m
26 197 ft / 60 m 9,837 ft / 2,998 m 256.61° 257.25° Asphalt 0 ft / 0 m 390 ft / 119 m

Approach Navaids

Runway Type Ident Frequency Range Bearing (true) Bearing (mag) Slope Elevation
08 Localiser ISK 109.50 MHz 18 nm / 33 km 76.62° 77.26° - 1,024 ft / 312 m (AMSL)
08 Glidescope ISK 109.50 MHz 10 nm / 19 km 76.61° 77.25° 3.00° 1,047 ft / 319 m (AMSL)
08 DME ISK 109.50 MHz 18 nm / 33 km - - - 1,010 ft / 308 m (AMSL)

Popular Alternatives